createdAt,value
2017-10-30T00:00:37.722Z,0
2017-10-30T00:01:18.288Z,0
2017-10-30T00:01:58.853Z,0
2017-10-30T00:02:39.400Z,0
2017-10-30T00:03:19.940Z,0
2017-10-30T00:04:00.510Z,0
2017-10-30T00:04:41.117Z,0
2017-10-30T00:05:21.815Z,0
2017-10-30T00:06:02.481Z,0
2017-10-30T00:06:43.014Z,0
2017-10-30T00:07:23.605Z,0
2017-10-30T00:08:04.124Z,0
2017-10-30T00:08:44.642Z,0
2017-10-30T00:09:25.221Z,0
2017-10-30T00:10:05.781Z,0
2017-10-30T00:10:46.307Z,0
2017-10-30T00:11:26.873Z,0
2017-10-30T00:12:07.472Z,0
2017-10-30T00:12:47.965Z,0
2017-10-30T00:13:28.505Z,0
2017-10-30T00:14:09.059Z,0
2017-10-30T00:14:49.639Z,0
2017-10-30T00:15:30.242Z,0
2017-10-30T00:16:10.823Z,0
2017-10-30T00:16:51.396Z,0
2017-10-30T00:17:31.924Z,0
2017-10-30T00:18:12.456Z,0
2017-10-30T00:18:53.020Z,0
2017-10-30T00:19:33.880Z,0
2017-10-30T00:20:14.416Z,0
2017-10-30T00:20:55.024Z,0
2017-10-30T00:21:35.596Z,0
2017-10-30T00:22:16.180Z,0
2017-10-30T00:22:56.871Z,0
2017-10-30T00:23:37.396Z,0
2017-10-30T00:24:18.162Z,0
2017-10-30T00:24:58.691Z,0
2017-10-30T00:25:39.197Z,0
2017-10-30T00:26:19.816Z,0
2017-10-30T00:27:00.347Z,0
2017-10-30T00:27:40.907Z,0
2017-10-30T00:28:21.539Z,0
2017-10-30T00:29:02.100Z,0
2017-10-30T00:29:42.626Z,0
2017-10-30T00:30:23.290Z,0
2017-10-30T00:31:04.274Z,0
2017-10-30T00:31:44.884Z,0
2017-10-30T00:32:25.369Z,0
2017-10-30T00:33:05.930Z,0
2017-10-30T00:33:46.485Z,0
2017-10-30T00:34:27.036Z,0
2017-10-30T00:35:07.607Z,0
2017-10-30T00:35:48.163Z,0
2017-10-30T00:36:28.680Z,0
2017-10-30T00:37:09.236Z,0
2017-10-30T00:37:49.766Z,0
2017-10-30T00:38:30.328Z,0
2017-10-30T00:39:10.835Z,0
2017-10-30T00:39:51.386Z,0
2017-10-30T00:40:31.905Z,0
2017-10-30T00:41:12.442Z,0
2017-10-30T00:41:53.002Z,0
2017-10-30T00:42:33.603Z,0
2017-10-30T00:43:14.105Z,0
2017-10-30T00:43:54.638Z,0
2017-10-30T00:44:35.202Z,0
2017-10-30T00:45:15.760Z,0
2017-10-30T00:45:56.316Z,0
2017-10-30T00:46:36.890Z,0
2017-10-30T00:47:17.415Z,0
2017-10-30T00:47:57.964Z,0
2017-10-30T00:48:38.516Z,0
2017-10-30T00:49:19.060Z,0
2017-10-30T00:49:59.624Z,0
2017-10-30T00:50:40.203Z,0
2017-10-30T00:51:20.750Z,0
2017-10-30T00:52:01.277Z,0
2017-10-30T00:52:41.842Z,0
2017-10-30T00:53:22.412Z,0
2017-10-30T00:54:02.908Z,0
2017-10-30T00:54:43.441Z,0
2017-10-30T00:55:23.993Z,0
2017-10-30T00:56:04.620Z,0
2017-10-30T00:56:45.164Z,0
2017-10-30T00:57:25.740Z,0
2017-10-30T00:58:07.140Z,0
2017-10-30T00:58:47.659Z,0
2017-10-30T00:59:28.191Z,0
2017-10-30T01:00:08.741Z,0
2017-10-30T01:00:49.284Z,0
2017-10-30T01:01:29.827Z,0
2017-10-30T01:02:10.395Z,0
2017-10-30T01:02:51.041Z,0
2017-10-30T01:03:31.585Z,0
2017-10-30T01:04:12.081Z,0
2017-10-30T01:04:52.659Z,0
2017-10-30T01:05:33.216Z,0
2017-10-30T01:06:13.760Z,0
2017-10-30T01:06:54.320Z,0
2017-10-30T01:07:34.873Z,0
2017-10-30T01:08:15.475Z,0
2017-10-30T01:08:56.031Z,0
2017-10-30T01:09:36.586Z,0
2017-10-30T01:10:17.130Z,0
2017-10-30T01:10:57.669Z,0
2017-10-30T01:11:38.263Z,0
2017-10-30T01:12:18.835Z,0
2017-10-30T01:12:59.332Z,0
2017-10-30T01:13:39.910Z,0
2017-10-30T01:14:20.505Z,0
2017-10-30T01:15:01.010Z,0
2017-10-30T01:15:41.565Z,0
2017-10-30T01:16:22.113Z,0
2017-10-30T01:17:02.686Z,0
2017-10-30T01:17:43.235Z,0
2017-10-30T01:18:23.783Z,0
2017-10-30T01:19:04.339Z,0
2017-10-30T01:19:45.243Z,0
2017-10-30T01:20:25.503Z,0
2017-10-30T01:21:06.064Z,0
2017-10-30T01:21:46.618Z,0
2017-10-30T01:22:27.172Z,0
2017-10-30T01:23:07.700Z,0
2017-10-30T01:23:48.289Z,0
2017-10-30T01:24:28.814Z,0
2017-10-30T01:25:09.468Z,0
2017-10-30T01:25:50.124Z,0
2017-10-30T01:26:30.605Z,0
2017-10-30T01:27:11.211Z,0
2017-10-30T01:27:52.392Z,0
2017-10-30T01:28:32.976Z,0
2017-10-30T01:29:13.499Z,0
2017-10-30T01:29:54.043Z,0
2017-10-30T01:30:34.574Z,0
2017-10-30T01:31:15.133Z,0
2017-10-30T01:31:55.724Z,0
2017-10-30T01:32:36.255Z,0
2017-10-30T01:33:16.821Z,0
2017-10-30T01:33:57.357Z,0
2017-10-30T01:34:37.909Z,0
2017-10-30T01:35:18.454Z,0
2017-10-30T01:35:59.038Z,0
2017-10-30T01:36:39.594Z,0
2017-10-30T01:37:20.298Z,0
2017-10-30T01:38:00.822Z,0
2017-10-30T01:38:41.541Z,0
2017-10-30T01:39:22.158Z,0
2017-10-30T01:40:02.820Z,0
2017-10-30T01:40:43.249Z,0
2017-10-30T01:41:23.931Z,0
2017-10-30T01:42:04.483Z,0
2017-10-30T01:42:45.005Z,0
2017-10-30T01:43:25.614Z,0
2017-10-30T01:44:06.131Z,0
2017-10-30T01:44:46.685Z,0
2017-10-30T01:45:27.205Z,0
2017-10-30T01:46:07.770Z,0
2017-10-30T01:46:48.322Z,0
2017-10-30T01:47:28.868Z,0
2017-10-30T01:48:09.419Z,0
2017-10-30T01:48:49.980Z,0
2017-10-30T01:49:30.533Z,0
2017-10-30T01:50:11.080Z,0
2017-10-30T01:50:51.630Z,0
2017-10-30T01:51:32.193Z,0
2017-10-30T01:52:12.757Z,0
2017-10-30T01:52:53.301Z,0
2017-10-30T01:53:33.840Z,0
2017-10-30T01:54:14.389Z,0
2017-10-30T01:54:54.936Z,0
2017-10-30T01:55:35.499Z,0
2017-10-30T01:56:16.047Z,0
2017-10-30T01:56:56.580Z,0
2017-10-30T01:57:37.153Z,0
2017-10-30T01:58:17.684Z,0
2017-10-30T01:58:58.235Z,0
2017-10-30T01:59:38.768Z,0
2017-10-30T02:00:19.346Z,0
2017-10-30T02:00:59.881Z,0
2017-10-30T02:01:40.412Z,0
2017-10-30T02:02:20.949Z,0
2017-10-30T02:03:01.483Z,0
2017-10-30T02:03:42.017Z,0
2017-10-30T02:04:22.624Z,0
2017-10-30T02:05:03.181Z,0
2017-10-30T02:05:43.738Z,0
2017-10-30T02:06:24.289Z,0
2017-10-30T02:07:05.896Z,0
2017-10-30T02:07:46.435Z,0
2017-10-30T02:08:26.998Z,0
2017-10-30T02:09:07.539Z,0
2017-10-30T02:09:48.094Z,0
2017-10-30T02:10:28.622Z,0
2017-10-30T02:11:09.164Z,0
2017-10-30T02:11:49.706Z,0
2017-10-30T02:12:30.236Z,0
2017-10-30T02:13:10.802Z,0
2017-10-30T02:13:51.350Z,0
2017-10-30T02:14:31.921Z,0
2017-10-30T02:15:12.428Z,0
2017-10-30T02:15:52.996Z,0
2017-10-30T02:16:33.548Z,0
2017-10-30T02:17:14.093Z,0
2017-10-30T02:17:54.633Z,0
2017-10-30T02:18:35.174Z,0
2017-10-30T02:19:15.727Z,0
2017-10-30T02:19:56.268Z,0
2017-10-30T02:20:36.813Z,0
2017-10-30T02:21:17.347Z,0
2017-10-30T02:21:57.875Z,0
2017-10-30T02:22:38.431Z,0
2017-10-30T02:23:18.973Z,0
2017-10-30T02:23:59.532Z,0
2017-10-30T02:24:40.079Z,0
2017-10-30T02:25:20.624Z,0
2017-10-30T02:26:01.180Z,0
2017-10-30T02:26:41.732Z,0
2017-10-30T02:27:22.328Z,0
2017-10-30T02:28:02.870Z,0
2017-10-30T02:28:43.387Z,0
2017-10-30T02:29:23.927Z,0
2017-10-30T02:30:04.484Z,0
2017-10-30T02:30:45.013Z,0
2017-10-30T02:31:25.565Z,0
2017-10-30T02:32:06.123Z,0
2017-10-30T02:32:46.678Z,0
2017-10-30T02:33:27.263Z,0
2017-10-30T02:34:07.781Z,0
2017-10-30T02:34:48.338Z,0
2017-10-30T02:35:28.881Z,0
2017-10-30T02:36:09.423Z,0
2017-10-30T02:36:49.949Z,0
2017-10-30T02:37:30.504Z,0
2017-10-30T02:38:11.037Z,0
2017-10-30T02:38:51.575Z,0
2017-10-30T02:39:32.117Z,0
2017-10-30T02:40:12.678Z,0
2017-10-30T02:40:53.234Z,0
2017-10-30T02:41:33.777Z,0
2017-10-30T02:42:14.332Z,0
2017-10-30T02:42:54.895Z,0
2017-10-30T02:43:35.406Z,0
2017-10-30T02:44:16.898Z,0
2017-10-30T02:44:58.129Z,0
2017-10-30T02:45:38.676Z,0
2017-10-30T02:46:19.241Z,0
2017-10-30T02:46:59.748Z,0
2017-10-30T02:47:40.295Z,0
2017-10-30T02:48:20.838Z,0
2017-10-30T02:49:01.381Z,0
2017-10-30T02:49:41.935Z,0
2017-10-30T02:50:22.473Z,0
2017-10-30T02:51:03.020Z,0
2017-10-30T02:51:43.577Z,0
2017-10-30T02:52:24.139Z,0
2017-10-30T02:53:04.649Z,0
2017-10-30T02:53:45.188Z,0
2017-10-30T02:54:25.748Z,0
2017-10-30T02:55:06.304Z,0
2017-10-30T02:55:46.843Z,0
2017-10-30T02:56:27.379Z,0
2017-10-30T02:57:07.929Z,0
2017-10-30T02:57:48.520Z,0
2017-10-30T02:58:29.022Z,0
2017-10-30T02:59:09.540Z,0
2017-10-30T02:59:50.088Z,0
2017-10-30T03:00:30.639Z,0
2017-10-30T03:01:11.188Z,0
2017-10-30T03:01:51.733Z,0
2017-10-30T03:02:32.271Z,0
2017-10-30T03:03:12.801Z,0
2017-10-30T03:03:53.349Z,0
2017-10-30T03:04:33.888Z,0
2017-10-30T03:05:14.427Z,0
2017-10-30T03:05:54.975Z,0
2017-10-30T03:06:35.510Z,0
2017-10-30T03:07:16.057Z,0
2017-10-30T03:07:56.625Z,0
2017-10-30T03:08:37.205Z,0
2017-10-30T03:09:17.753Z,0
2017-10-30T03:09:58.262Z,0
2017-10-30T03:10:38.817Z,0
2017-10-30T03:11:19.376Z,0
2017-10-30T03:11:59.981Z,0
2017-10-30T03:12:40.489Z,0
2017-10-30T03:13:21.015Z,0
2017-10-30T03:14:01.556Z,0
2017-10-30T03:14:42.153Z,0
2017-10-30T03:15:22.670Z,0
2017-10-30T03:16:03.242Z,0
2017-10-30T03:16:43.800Z,0
2017-10-30T03:17:24.331Z,0
2017-10-30T03:18:04.914Z,0
2017-10-30T03:18:45.467Z,0
2017-10-30T03:19:26.031Z,0
2017-10-30T03:20:06.546Z,0
2017-10-30T03:20:47.081Z,0
2017-10-30T03:21:27.640Z,0
2017-10-30T03:22:08.180Z,0
2017-10-30T03:22:48.717Z,0
2017-10-30T03:23:29.270Z,0
2017-10-30T03:24:09.827Z,0
2017-10-30T03:24:50.386Z,0
2017-10-30T03:25:30.935Z,0
2017-10-30T03:26:11.445Z,0
2017-10-30T03:26:51.989Z,0
2017-10-30T03:27:32.555Z,0
2017-10-30T03:28:13.104Z,0
2017-10-30T03:28:53.673Z,0
2017-10-30T03:29:34.238Z,0
2017-10-30T03:30:14.785Z,0
2017-10-30T03:30:55.340Z,0
2017-10-30T03:31:35.893Z,0
2017-10-30T03:32:16.460Z,0
2017-10-30T03:32:57.029Z,0
2017-10-30T03:33:37.526Z,0
2017-10-30T03:34:18.067Z,0
2017-10-30T03:34:58.596Z,0
2017-10-30T03:35:39.155Z,0
2017-10-30T03:36:19.677Z,0
2017-10-30T03:37:00.239Z,0
2017-10-30T03:37:40.817Z,0
2017-10-30T03:38:21.381Z,0
2017-10-30T03:39:01.968Z,0
2017-10-30T03:39:42.526Z,0
2017-10-30T03:40:23.084Z,0
2017-10-30T03:41:03.618Z,0
2017-10-30T03:41:44.181Z,0
2017-10-30T03:42:24.742Z,0
2017-10-30T03:43:05.309Z,0
2017-10-30T03:43:45.855Z,0
2017-10-30T03:44:26.395Z,0
2017-10-30T03:45:07.097Z,0
2017-10-30T03:45:47.646Z,0
2017-10-30T03:46:28.206Z,0
2017-10-30T03:47:08.745Z,0
2017-10-30T03:47:49.294Z,0
2017-10-30T03:48:29.808Z,0
2017-10-30T03:49:10.379Z,0
2017-10-30T03:49:50.924Z,0
2017-10-30T03:50:31.478Z,0
2017-10-30T03:51:12.032Z,0
2017-10-30T03:51:52.602Z,0
2017-10-30T03:52:33.118Z,0
2017-10-30T03:53:13.668Z,0
2017-10-30T03:53:54.243Z,0
2017-10-30T03:54:34.779Z,0
2017-10-30T03:55:15.334Z,0
2017-10-30T03:55:55.890Z,0
2017-10-30T03:56:36.442Z,0
2017-10-30T03:57:17.012Z,0
2017-10-30T03:57:57.534Z,0
2017-10-30T03:58:38.019Z,0
2017-10-30T03:59:18.568Z,0
2017-10-30T03:59:59.111Z,0
2017-10-30T04:00:39.670Z,0
2017-10-30T04:01:20.222Z,0
2017-10-30T04:02:00.807Z,0
2017-10-30T04:02:41.299Z,0
2017-10-30T04:03:21.852Z,0
2017-10-30T04:04:02.407Z,0
2017-10-30T04:04:42.991Z,0
2017-10-30T04:05:23.527Z,0
2017-10-30T04:06:04.056Z,0
2017-10-30T04:06:44.639Z,0
2017-10-30T04:07:25.159Z,0
2017-10-30T04:08:05.733Z,0
2017-10-30T04:08:46.282Z,0
2017-10-30T04:09:26.829Z,0
2017-10-30T04:10:07.376Z,0
2017-10-30T04:10:47.916Z,0
2017-10-30T04:11:28.459Z,0
2017-10-30T04:12:09.004Z,0
2017-10-30T04:12:49.561Z,0
2017-10-30T04:13:30.127Z,0
2017-10-30T04:14:10.680Z,0
2017-10-30T04:14:51.216Z,0
2017-10-30T04:15:31.760Z,0
2017-10-30T04:16:12.312Z,0
2017-10-30T04:16:52.872Z,0
2017-10-30T04:17:33.418Z,0
2017-10-30T04:18:13.985Z,0
2017-10-30T04:18:54.546Z,0
2017-10-30T04:19:35.106Z,0
2017-10-30T04:20:15.643Z,0
2017-10-30T04:20:56.213Z,0
2017-10-30T04:21:36.745Z,0
2017-10-30T04:22:17.305Z,0
2017-10-30T04:22:57.831Z,0
2017-10-30T04:23:38.399Z,0
2017-10-30T04:24:18.951Z,0
2017-10-30T04:24:59.524Z,0
2017-10-30T04:25:40.033Z,0
2017-10-30T04:26:20.576Z,0
2017-10-30T04:27:01.139Z,0
2017-10-30T04:27:41.678Z,0
2017-10-30T04:28:22.209Z,0
2017-10-30T04:29:02.749Z,0
2017-10-30T04:29:43.292Z,0
2017-10-30T04:30:23.840Z,0
2017-10-30T04:31:04.384Z,0
2017-10-30T04:31:44.928Z,0
2017-10-30T04:32:25.474Z,0
2017-10-30T04:33:06.015Z,0
2017-10-30T04:33:46.575Z,0
2017-10-30T04:34:27.143Z,0
2017-10-30T04:35:07.694Z,0
2017-10-30T04:35:48.234Z,0
2017-10-30T04:36:28.793Z,0
2017-10-30T04:37:09.428Z,0
2017-10-30T04:37:49.909Z,0
2017-10-30T04:38:30.445Z,0
2017-10-30T04:39:10.994Z,0
2017-10-30T04:39:51.561Z,0
2017-10-30T04:40:32.096Z,0
2017-10-30T04:41:12.654Z,0
2017-10-30T04:41:53.204Z,0
2017-10-30T04:42:33.775Z,0
2017-10-30T04:43:14.338Z,0
2017-10-30T04:43:54.889Z,0
2017-10-30T04:44:35.443Z,0
2017-10-30T04:45:15.991Z,0
2017-10-30T04:45:56.541Z,0
2017-10-30T04:46:37.076Z,0
2017-10-30T04:47:17.643Z,0
2017-10-30T04:47:58.171Z,0
2017-10-30T04:48:38.700Z,0
2017-10-30T04:49:19.277Z,0
2017-10-30T04:49:59.807Z,0
2017-10-30T04:50:40.366Z,0
2017-10-30T04:51:20.920Z,0
2017-10-30T04:52:01.498Z,0
2017-10-30T04:52:42.023Z,0
2017-10-30T04:53:22.550Z,0
2017-10-30T04:54:03.105Z,0
2017-10-30T04:54:43.666Z,0
2017-10-30T04:55:24.234Z,0
2017-10-30T04:56:04.751Z,0
2017-10-30T04:56:45.717Z,0
2017-10-30T04:57:26.268Z,0
2017-10-30T04:58:06.828Z,0
2017-10-30T04:58:47.384Z,0
2017-10-30T04:59:27.944Z,0
2017-10-30T05:00:08.480Z,0
2017-10-30T05:00:49.038Z,0
2017-10-30T05:01:30.419Z,0
2017-10-30T05:02:10.104Z,0
2017-10-30T05:02:50.642Z,0
2017-10-30T05:03:31.206Z,0
2017-10-30T05:04:11.757Z,0
2017-10-30T05:04:52.305Z,0
2017-10-30T05:05:32.842Z,0
2017-10-30T05:06:13.379Z,0
2017-10-30T05:06:53.926Z,0
2017-10-30T05:07:34.476Z,0
2017-10-30T05:08:15.033Z,0
2017-10-30T05:08:55.593Z,0
2017-10-30T05:09:36.132Z,0
2017-10-30T05:10:16.682Z,0
2017-10-30T05:10:57.241Z,0
2017-10-30T05:11:37.809Z,0
2017-10-30T05:12:18.351Z,0
2017-10-30T05:12:58.912Z,0
2017-10-30T05:13:39.485Z,0
2017-10-30T05:14:20.042Z,0
2017-10-30T05:15:00.585Z,0
2017-10-30T05:15:41.140Z,0
2017-10-30T05:16:21.702Z,0
2017-10-30T05:17:02.234Z,0
2017-10-30T05:17:42.796Z,0
2017-10-30T05:18:23.339Z,0
2017-10-30T05:19:03.890Z,0
2017-10-30T05:19:44.445Z,0
2017-10-30T05:20:25.004Z,0
2017-10-30T05:21:05.548Z,0
2017-10-30T05:21:46.110Z,0
2017-10-30T05:22:26.662Z,0
2017-10-30T05:23:07.200Z,0
2017-10-30T05:23:47.750Z,0
2017-10-30T05:24:28.289Z,0
2017-10-30T05:25:08.849Z,0
2017-10-30T05:25:49.399Z,0
2017-10-30T05:26:29.961Z,0
2017-10-30T05:27:10.517Z,0
2017-10-30T05:27:51.056Z,0
2017-10-30T05:28:31.615Z,0
2017-10-30T05:29:12.176Z,0
2017-10-30T05:29:52.737Z,0
2017-10-30T05:30:33.295Z,0
2017-10-30T05:31:13.824Z,0
2017-10-30T05:31:54.382Z,0
2017-10-30T05:32:34.927Z,0
2017-10-30T05:33:15.481Z,0
2017-10-30T05:33:56.018Z,0
2017-10-30T05:34:36.568Z,0
2017-10-30T05:35:17.105Z,0
2017-10-30T05:35:57.664Z,0
2017-10-30T05:36:38.212Z,0
2017-10-30T05:37:18.776Z,0
2017-10-30T05:37:59.328Z,0
2017-10-30T05:38:39.872Z,0
2017-10-30T05:39:20.390Z,0
2017-10-30T05:40:00.980Z,0
2017-10-30T05:40:41.528Z,0
2017-10-30T05:41:22.068Z,0
2017-10-30T05:42:02.638Z,0
2017-10-30T05:42:43.190Z,0
2017-10-30T05:43:23.741Z,0
2017-10-30T05:44:04.281Z,0
2017-10-30T05:44:44.828Z,0
2017-10-30T05:45:25.387Z,0
2017-10-30T05:46:05.933Z,0
2017-10-30T05:46:46.491Z,0
2017-10-30T05:47:27.061Z,0
2017-10-30T05:48:07.592Z,0
2017-10-30T05:48:48.145Z,0
2017-10-30T05:49:28.683Z,0
2017-10-30T05:50:09.240Z,0
2017-10-30T05:50:49.801Z,0
2017-10-30T05:51:30.344Z,0
2017-10-30T05:52:10.901Z,0
2017-10-30T05:52:51.464Z,0
2017-10-30T05:53:31.991Z,0
2017-10-30T05:54:12.549Z,0
2017-10-30T05:54:53.082Z,0
2017-10-30T05:55:33.608Z,0
2017-10-30T05:56:14.189Z,0
2017-10-30T05:56:54.719Z,0
2017-10-30T05:57:35.282Z,0
2017-10-30T05:58:15.824Z,0
2017-10-30T05:58:56.400Z,0
2017-10-30T05:59:36.940Z,0
2017-10-30T06:00:17.465Z,0
2017-10-30T06:00:58.010Z,0
2017-10-30T06:01:38.539Z,0
2017-10-30T06:02:19.079Z,0
2017-10-30T06:02:59.624Z,0
2017-10-30T06:03:40.153Z,0
2017-10-30T06:04:20.695Z,0
2017-10-30T06:05:01.274Z,0
2017-10-30T06:05:41.798Z,0
2017-10-30T06:06:22.360Z,0
2017-10-30T06:07:02.910Z,0
2017-10-30T06:07:43.479Z,0
2017-10-30T06:08:24.039Z,0
2017-10-30T06:09:04.569Z,5
2017-10-30T06:09:45.132Z,5
2017-10-30T06:10:25.685Z,5
2017-10-30T06:11:06.386Z,5
2017-10-30T06:11:46.868Z,5
2017-10-30T06:12:27.426Z,5
2017-10-30T06:13:07.956Z,5
2017-10-30T06:13:48.494Z,5
2017-10-30T06:14:29.051Z,5
2017-10-30T06:15:09.612Z,5
2017-10-30T06:15:50.165Z,5
2017-10-30T06:16:30.697Z,5
2017-10-30T06:17:11.237Z,10
2017-10-30T06:17:51.775Z,10
2017-10-30T06:18:32.297Z,10
2017-10-30T06:19:12.897Z,10
2017-10-30T06:19:53.361Z,10
2017-10-30T06:20:33.901Z,10
2017-10-30T06:21:14.440Z,10
2017-10-30T06:21:55.006Z,10
2017-10-30T06:22:35.490Z,15
2017-10-30T06:23:16.040Z,15
2017-10-30T06:23:56.579Z,15
2017-10-30T06:24:37.094Z,15
2017-10-30T06:25:17.679Z,15
2017-10-30T06:25:58.185Z,15
2017-10-30T06:26:38.689Z,15
2017-10-30T06:27:19.235Z,20
2017-10-30T06:27:59.755Z,20
2017-10-30T06:28:40.259Z,20
2017-10-30T06:29:20.790Z,20
2017-10-30T06:30:01.322Z,20
2017-10-30T06:30:41.856Z,20
2017-10-30T06:31:22.431Z,25
2017-10-30T06:32:02.985Z,25
2017-10-30T06:32:43.528Z,25
2017-10-30T06:33:24.119Z,25
2017-10-30T06:34:04.634Z,25
2017-10-30T06:34:45.206Z,25
2017-10-30T06:35:25.718Z,25
2017-10-30T06:36:06.317Z,30
2017-10-30T06:36:46.838Z,30
2017-10-30T06:37:27.817Z,30
2017-10-30T06:38:08.355Z,30
2017-10-30T06:38:48.920Z,30
2017-10-30T06:39:29.451Z,30
2017-10-30T06:40:09.939Z,30
2017-10-30T06:40:50.481Z,30
2017-10-30T06:41:31.012Z,30
2017-10-30T06:42:11.571Z,30
2017-10-30T06:42:52.120Z,30
2017-10-30T06:43:32.661Z,30
2017-10-30T06:44:13.246Z,30
2017-10-30T06:44:53.757Z,30
2017-10-30T06:45:34.291Z,30
2017-10-30T06:46:14.853Z,35
2017-10-30T06:46:55.390Z,35
2017-10-30T06:47:35.941Z,35
2017-10-30T06:48:16.486Z,35
2017-10-30T06:48:57.065Z,35
2017-10-30T06:49:37.698Z,40
2017-10-30T06:50:18.260Z,40
2017-10-30T06:50:58.819Z,40
2017-10-30T06:51:39.357Z,40
2017-10-30T06:52:19.904Z,40
2017-10-30T06:53:00.454Z,45
2017-10-30T06:53:41.010Z,45
2017-10-30T06:54:21.566Z,45
2017-10-30T06:55:02.103Z,50
2017-10-30T06:55:42.654Z,50
2017-10-30T06:56:23.204Z,50
2017-10-30T06:57:03.767Z,50
2017-10-30T06:57:44.363Z,50
2017-10-30T06:58:24.944Z,50
2017-10-30T06:59:05.432Z,50
2017-10-30T06:59:46.438Z,50
2017-10-30T07:00:26.974Z,50
2017-10-30T07:01:07.503Z,50
2017-10-30T07:01:48.078Z,50
2017-10-30T07:02:29.142Z,50
2017-10-30T07:03:09.675Z,50
2017-10-30T07:03:50.214Z,50
2017-10-30T07:04:30.963Z,50
2017-10-30T07:05:11.710Z,50
2017-10-30T07:05:52.263Z,50
2017-10-30T07:06:33.635Z,50
2017-10-30T07:07:14.166Z,50
2017-10-30T07:07:54.773Z,50
2017-10-30T07:08:35.328Z,50
2017-10-30T07:09:15.887Z,50
2017-10-30T07:09:56.374Z,50
2017-10-30T07:10:36.874Z,50
2017-10-30T07:11:17.401Z,50
2017-10-30T07:11:57.935Z,50
2017-10-30T07:12:38.475Z,50
2017-10-30T07:13:19.082Z,50
2017-10-30T07:13:59.617Z,50
2017-10-30T07:14:40.223Z,50
2017-10-30T07:15:20.791Z,55
2017-10-30T07:16:01.312Z,50
2017-10-30T07:16:41.847Z,50
2017-10-30T07:17:22.377Z,55
2017-10-30T07:18:02.943Z,55
2017-10-30T07:18:43.468Z,55
2017-10-30T07:19:24.027Z,60
2017-10-30T07:20:04.556Z,60
2017-10-30T07:20:45.090Z,60
2017-10-30T07:21:25.641Z,60
2017-10-30T07:22:06.186Z,65
2017-10-30T07:22:46.732Z,65
2017-10-30T07:23:27.272Z,65
2017-10-30T07:24:07.801Z,70
2017-10-30T07:24:48.385Z,70
2017-10-30T07:25:28.881Z,70
2017-10-30T07:26:09.394Z,75
2017-10-30T07:26:50.436Z,75
2017-10-30T07:29:05.341Z,85
2017-10-30T07:29:45.889Z,85
2017-10-30T07:30:26.436Z,85
2017-10-30T07:31:06.999Z,85
2017-10-30T07:31:47.553Z,85
2017-10-30T07:32:28.075Z,85
2017-10-30T07:33:08.616Z,85
2017-10-30T07:33:49.165Z,90
2017-10-30T07:34:29.674Z,90
2017-10-30T07:35:10.202Z,90
2017-10-30T07:35:50.738Z,90
2017-10-30T07:36:31.298Z,90
2017-10-30T07:37:11.879Z,90
2017-10-30T07:37:52.363Z,90
2017-10-30T07:38:32.914Z,90
2017-10-30T07:39:13.485Z,85
2017-10-30T07:39:54.052Z,85
2017-10-30T07:40:34.602Z,85
2017-10-30T07:41:15.155Z,80
2017-10-30T07:41:55.713Z,80
2017-10-30T07:42:36.236Z,75
2017-10-30T07:43:16.778Z,75
2017-10-30T07:43:57.308Z,75
2017-10-30T07:44:37.891Z,75
2017-10-30T07:45:19.019Z,75
2017-10-30T07:45:58.992Z,75
2017-10-30T07:46:39.534Z,75
2017-10-30T07:47:20.479Z,75
2017-10-30T07:48:01.158Z,75
2017-10-30T07:48:41.789Z,75
2017-10-30T07:49:22.286Z,75
2017-10-30T07:50:02.895Z,75
2017-10-30T07:50:43.436Z,75
2017-10-30T07:51:24.718Z,75
2017-10-30T07:52:05.203Z,75
2017-10-30T07:52:49.623Z,75
2017-10-30T07:53:31.202Z,70
2017-10-30T07:54:11.760Z,75
2017-10-30T07:54:52.422Z,70
2017-10-30T07:55:33.078Z,70
2017-10-30T07:56:13.780Z,70
2017-10-30T07:56:54.309Z,70
2017-10-30T07:57:34.824Z,70
2017-10-30T07:58:15.609Z,70
2017-10-30T07:58:55.995Z,70
2017-10-30T07:59:36.578Z,70
2017-10-30T08:00:17.118Z,70
2017-10-30T08:00:57.749Z,70
2017-10-30T08:01:38.338Z,70
2017-10-30T08:02:18.903Z,70
2017-10-30T08:02:59.421Z,70
2017-10-30T08:03:40.130Z,70
2017-10-30T08:04:20.633Z,70
2017-10-30T08:05:01.180Z,70
2017-10-30T08:05:41.781Z,70
2017-10-30T08:06:22.363Z,70
2017-10-30T08:07:02.913Z,70
2017-10-30T08:07:43.595Z,70
2017-10-30T08:08:24.163Z,70
2017-10-30T08:09:04.945Z,70
2017-10-30T08:09:45.564Z,70
2017-10-30T08:10:26.119Z,70
2017-10-30T08:11:06.669Z,70
2017-10-30T08:11:47.259Z,70
2017-10-30T08:12:27.797Z,75
2017-10-30T08:13:08.338Z,75
2017-10-30T08:13:48.904Z,75
2017-10-30T08:14:29.440Z,75
2017-10-30T08:15:09.964Z,80
2017-10-30T08:15:50.505Z,80
2017-10-30T08:16:31.104Z,75
2017-10-30T08:17:11.656Z,75
2017-10-30T08:17:52.308Z,80
2017-10-30T08:18:32.860Z,80
2017-10-30T08:19:13.432Z,80
2017-10-30T08:19:53.969Z,80
2017-10-30T08:20:34.521Z,80
2017-10-30T08:21:15.054Z,80
2017-10-30T08:21:55.598Z,80
2017-10-30T08:22:36.140Z,80
2017-10-30T08:23:16.710Z,75
2017-10-30T08:23:57.260Z,75
2017-10-30T08:24:37.811Z,75
2017-10-30T08:25:18.373Z,75
2017-10-30T08:25:58.910Z,75
2017-10-30T08:26:39.470Z,75
2017-10-30T08:27:20.015Z,75
2017-10-30T08:28:00.588Z,75
2017-10-30T08:28:42.811Z,75
2017-10-30T08:29:23.369Z,75
2017-10-30T08:30:03.943Z,75
2017-10-30T08:30:44.504Z,75
2017-10-30T08:31:25.064Z,75
2017-10-30T08:32:05.623Z,75
2017-10-30T08:32:46.170Z,75
2017-10-30T08:33:26.732Z,75
2017-10-30T08:34:07.262Z,75
2017-10-30T08:34:47.834Z,75
2017-10-30T08:35:28.411Z,75
2017-10-30T08:36:08.931Z,75
2017-10-30T08:36:49.477Z,75
2017-10-30T08:37:30.047Z,75
2017-10-30T08:38:10.612Z,75
2017-10-30T08:38:51.150Z,75
2017-10-30T08:39:31.712Z,75
2017-10-30T08:40:12.266Z,75
2017-10-30T08:40:52.832Z,75
2017-10-30T08:41:33.382Z,75
2017-10-30T08:42:13.955Z,75
2017-10-30T08:42:54.529Z,75
2017-10-30T08:43:35.115Z,75
2017-10-30T08:44:15.638Z,75
2017-10-30T08:44:56.184Z,75
2017-10-30T08:45:36.735Z,75
2017-10-30T08:46:17.387Z,75
2017-10-30T08:46:58.099Z,75
2017-10-30T08:47:38.653Z,80
2017-10-30T08:48:19.246Z,80
2017-10-30T08:48:59.797Z,80
2017-10-30T08:49:40.359Z,80
2017-10-30T08:50:20.908Z,80
2017-10-30T08:51:01.461Z,80
2017-10-30T08:51:42.015Z,80
2017-10-30T08:52:22.540Z,80
2017-10-30T08:53:03.075Z,80
2017-10-30T08:53:43.629Z,80
2017-10-30T08:54:24.165Z,80
2017-10-30T08:55:04.719Z,80
2017-10-30T08:55:45.321Z,80
2017-10-30T08:56:25.875Z,80
2017-10-30T08:57:06.421Z,80
2017-10-30T08:57:46.971Z,80
2017-10-30T08:58:27.499Z,80
2017-10-30T08:59:08.001Z,80
2017-10-30T08:59:48.567Z,80
2017-10-30T09:00:29.134Z,80
2017-10-30T09:01:09.712Z,80
2017-10-30T09:01:50.280Z,80
2017-10-30T09:02:30.810Z,80
2017-10-30T09:03:11.338Z,80
2017-10-30T09:03:51.892Z,80
2017-10-30T09:04:32.452Z,80
2017-10-30T09:05:13.016Z,80
2017-10-30T09:05:53.553Z,85
2017-10-30T09:06:34.116Z,85
2017-10-30T09:07:14.690Z,85
2017-10-30T09:07:55.197Z,85
2017-10-30T09:08:35.782Z,85
2017-10-30T09:09:16.280Z,85
2017-10-30T09:09:56.853Z,85
2017-10-30T09:10:37.417Z,85
2017-10-30T09:11:17.949Z,85
2017-10-30T09:11:58.504Z,85
2017-10-30T09:12:39.066Z,85
2017-10-30T09:13:19.599Z,85
2017-10-30T09:14:00.171Z,80
2017-10-30T09:14:40.711Z,80
2017-10-30T09:15:21.224Z,80
2017-10-30T09:16:01.788Z,80
2017-10-30T09:16:42.376Z,80
2017-10-30T09:17:22.886Z,80
2017-10-30T09:18:03.421Z,80
2017-10-30T09:18:44.046Z,80
2017-10-30T09:19:24.603Z,80
2017-10-30T09:20:05.116Z,80
2017-10-30T09:20:45.692Z,80
2017-10-30T09:21:26.242Z,80
2017-10-30T09:22:06.779Z,80
2017-10-30T09:22:47.333Z,85
2017-10-30T09:23:27.918Z,85
2017-10-30T09:24:08.435Z,85
2017-10-30T09:24:49.004Z,85
2017-10-30T09:25:29.559Z,85
2017-10-30T09:26:10.105Z,85
2017-10-30T09:26:50.687Z,85
2017-10-30T09:27:31.213Z,85
2017-10-30T09:28:11.793Z,85
2017-10-30T09:28:52.337Z,85
2017-10-30T09:29:32.887Z,85
2017-10-30T09:30:13.456Z,85
2017-10-30T09:30:54.023Z,85
2017-10-30T09:31:34.590Z,85
2017-10-30T09:32:15.160Z,85
2017-10-30T09:32:55.723Z,85
2017-10-30T09:33:36.271Z,85
2017-10-30T09:34:16.801Z,85
2017-10-30T09:34:57.360Z,85
2017-10-30T09:35:37.921Z,85
2017-10-30T09:36:18.496Z,85
2017-10-30T09:36:59.028Z,85
2017-10-30T09:37:39.612Z,85
2017-10-30T09:38:20.178Z,85
2017-10-30T09:39:00.761Z,85
2017-10-30T09:39:41.310Z,85
2017-10-30T09:40:21.884Z,85
2017-10-30T09:41:02.426Z,85
2017-10-30T09:41:42.996Z,85
2017-10-30T09:42:23.525Z,85
2017-10-30T09:43:04.092Z,85
2017-10-30T09:43:44.655Z,90
2017-10-30T09:44:25.212Z,90
2017-10-30T09:45:05.799Z,90
2017-10-30T09:45:46.386Z,90
2017-10-30T09:46:26.963Z,90
2017-10-30T09:47:07.517Z,90
2017-10-30T09:47:48.083Z,90
2017-10-30T09:48:28.625Z,90
2017-10-30T09:49:09.205Z,90
2017-10-30T09:49:49.731Z,90
2017-10-30T09:50:30.277Z,90
2017-10-30T09:51:10.873Z,90
2017-10-30T09:51:51.382Z,90
2017-10-30T09:52:31.932Z,90
2017-10-30T09:53:12.494Z,90
2017-10-30T09:53:53.027Z,90